createdAt,value
2017-10-05T00:01:08.299Z,11.80
2017-10-05T00:03:36.296Z,11.80
2017-10-05T00:06:04.151Z,11.80
2017-10-05T00:08:32.130Z,11.80
2017-10-05T00:11:00.173Z,11.80
2017-10-05T00:13:28.262Z,11.70
2017-10-05T00:15:56.030Z,11.70
2017-10-05T00:18:23.975Z,11.70
2017-10-05T00:20:51.863Z,11.60
2017-10-05T00:23:19.739Z,11.60
2017-10-05T00:25:47.612Z,11.60
2017-10-05T00:28:15.667Z,11.50
2017-10-05T00:30:43.575Z,11.50
2017-10-05T00:33:12.226Z,11.40
2017-10-05T00:35:40.226Z,11.40
2017-10-05T00:38:08.248Z,11.40
2017-10-05T00:40:36.122Z,11.40
2017-10-05T00:43:03.973Z,11.30
2017-10-05T00:45:31.875Z,11.30
2017-10-05T00:47:59.813Z,11.30
2017-10-05T00:50:27.797Z,11.20
2017-10-05T00:52:55.849Z,11.30
2017-10-05T00:55:23.918Z,11.30
2017-10-05T00:57:51.812Z,11.30
2017-10-05T01:00:19.676Z,11.30
2017-10-05T01:02:47.534Z,11.30
2017-10-05T01:05:15.424Z,11.30
2017-10-05T01:07:43.559Z,11.20
2017-10-05T01:10:11.457Z,11.10
2017-10-05T01:12:39.398Z,11.00
2017-10-05T01:15:07.466Z,10.90
2017-10-05T01:17:35.287Z,10.90
2017-10-05T01:20:04.014Z,10.80
2017-10-05T01:22:32.131Z,10.80
2017-10-05T01:25:01.412Z,10.80
2017-10-05T01:27:29.561Z,10.80
2017-10-05T01:29:57.448Z,10.80
2017-10-05T01:32:25.350Z,10.90
2017-10-05T01:34:54.186Z,11.00
2017-10-05T01:37:22.261Z,11.00
2017-10-05T01:39:50.144Z,11.00
2017-10-05T01:42:18.029Z,11.00
2017-10-05T01:44:45.818Z,11.00
2017-10-05T01:47:13.724Z,11.00
2017-10-05T01:49:41.525Z,11.00
2017-10-05T01:52:09.481Z,10.90
2017-10-05T01:54:37.424Z,10.90
2017-10-05T01:57:05.312Z,10.90
2017-10-05T01:59:33.258Z,10.90
2017-10-05T02:02:01.331Z,10.80
2017-10-05T02:04:29.321Z,10.90
2017-10-05T02:06:57.268Z,10.80
2017-10-05T02:09:25.137Z,10.70
2017-10-05T02:11:52.919Z,10.60
2017-10-05T02:14:20.869Z,10.50
2017-10-05T02:16:48.940Z,10.40
2017-10-05T02:19:17.485Z,10.30
2017-10-05T02:21:45.288Z,10.10
2017-10-05T02:24:13.201Z,10.00
2017-10-05T02:26:42.043Z,10.00
2017-10-05T02:29:09.848Z,9.90
2017-10-05T02:31:38.596Z,10.00
2017-10-05T02:34:06.562Z,10.00
2017-10-05T02:36:34.370Z,10.20
2017-10-05T02:39:02.963Z,10.10
2017-10-05T02:41:31.627Z,10.20
2017-10-05T02:44:00.174Z,10.10
2017-10-05T02:46:28.251Z,10.10
2017-10-05T02:48:56.028Z,10.10
2017-10-05T02:51:23.994Z,10.10
2017-10-05T02:53:51.764Z,10.10
2017-10-05T02:56:19.549Z,10.10
2017-10-05T02:58:47.789Z,10.10
2017-10-05T03:01:15.746Z,10.10
2017-10-05T03:03:43.550Z,10.00
2017-10-05T03:06:11.407Z,10.00
2017-10-05T03:08:39.356Z,10.10
2017-10-05T03:11:07.324Z,10.20
2017-10-05T03:13:35.411Z,10.30
2017-10-05T03:16:03.283Z,10.40
2017-10-05T03:18:31.299Z,10.40
2017-10-05T03:20:59.609Z,10.40
2017-10-05T03:23:27.369Z,10.40
2017-10-05T03:25:55.204Z,10.30
2017-10-05T03:28:22.961Z,10.30
2017-10-05T03:30:50.913Z,10.30
2017-10-05T03:33:19.579Z,10.20
2017-10-05T03:35:47.427Z,10.20
2017-10-05T03:38:15.389Z,10.20
2017-10-05T03:40:43.256Z,10.20
2017-10-05T03:43:11.329Z,10.20
2017-10-05T03:45:39.136Z,10.20
2017-10-05T03:48:07.814Z,10.30
2017-10-05T03:50:35.746Z,10.20
2017-10-05T03:53:03.614Z,10.30
2017-10-05T03:55:31.480Z,10.30
2017-10-05T04:00:34.586Z,10.30
2017-10-05T04:03:02.655Z,10.30
2017-10-05T04:05:30.550Z,10.40
2017-10-05T04:07:58.519Z,10.40
2017-10-05T04:10:27.166Z,10.30
2017-10-05T04:12:55.011Z,10.40
2017-10-05T04:15:22.845Z,10.40
2017-10-05T04:17:50.690Z,10.40
2017-10-05T04:20:19.858Z,10.40
2017-10-05T04:22:47.754Z,10.40
2017-10-05T04:25:15.735Z,10.40
2017-10-05T04:27:43.591Z,10.40
2017-10-05T04:30:11.438Z,10.40
2017-10-05T04:32:39.498Z,10.50
2017-10-05T04:35:07.370Z,10.60
2017-10-05T04:37:35.358Z,10.70
2017-10-05T04:40:03.838Z,10.80
2017-10-05T04:42:31.713Z,10.80
2017-10-05T04:44:59.679Z,10.80
2017-10-05T04:47:27.446Z,10.80
2017-10-05T04:49:55.394Z,10.70
2017-10-05T04:52:23.278Z,10.70
2017-10-05T04:54:51.147Z,10.70
2017-10-05T04:57:19.099Z,10.70
2017-10-05T04:59:46.981Z,10.70
2017-10-05T05:02:14.850Z,10.70
2017-10-05T05:04:42.605Z,10.70
2017-10-05T05:07:10.474Z,10.70
2017-10-05T05:09:38.533Z,10.70
2017-10-05T05:12:06.397Z,10.70
2017-10-05T05:14:34.395Z,10.70
2017-10-05T05:17:02.354Z,10.70
2017-10-05T05:19:30.326Z,10.80
2017-10-05T05:21:58.599Z,10.70
2017-10-05T05:24:26.397Z,10.70
2017-10-05T05:26:55.131Z,10.80
2017-10-05T05:29:22.931Z,10.80
2017-10-05T05:31:52.659Z,10.80
2017-10-05T05:34:20.686Z,10.80
2017-10-05T05:36:48.750Z,10.80
2017-10-05T05:39:16.714Z,10.70
2017-10-05T05:41:44.684Z,10.70
2017-10-05T05:44:12.568Z,10.60
2017-10-05T05:46:40.562Z,10.60
2017-10-05T05:49:09.219Z,10.50
2017-10-05T05:51:37.723Z,10.50
2017-10-05T05:54:05.556Z,10.40
2017-10-05T05:56:33.550Z,10.40
2017-10-05T05:59:01.700Z,10.30
2017-10-05T06:01:29.682Z,10.30
2017-10-05T06:03:57.547Z,10.30
2017-10-05T06:06:26.648Z,10.30
2017-10-05T06:08:54.596Z,10.40
2017-10-05T06:11:22.488Z,10.50
2017-10-05T06:13:50.419Z,10.50
2017-10-05T06:16:18.307Z,10.50
2017-10-05T06:18:46.281Z,10.50
2017-10-05T06:21:14.239Z,10.50
2017-10-05T06:23:42.949Z,10.50
2017-10-05T06:26:10.728Z,10.60
2017-10-05T06:28:39.559Z,10.90
2017-10-05T06:31:07.543Z,10.90
2017-10-05T06:33:35.619Z,11.50
2017-10-05T06:36:03.589Z,12.50
2017-10-05T06:38:31.969Z,13.00
2017-10-05T06:40:59.950Z,13.50
2017-10-05T06:43:27.900Z,13.90
2017-10-05T06:45:55.986Z,14.10
2017-10-05T06:48:23.987Z,14.50
2017-10-05T06:50:52.808Z,14.10
2017-10-05T06:53:20.883Z,14.10
2017-10-05T06:55:48.707Z,14.10
2017-10-05T06:58:17.377Z,14.40
2017-10-05T07:00:45.528Z,14.40
2017-10-05T07:03:13.504Z,14.90
2017-10-05T07:05:41.271Z,15.30
2017-10-05T07:08:09.168Z,15.60
2017-10-05T07:10:37.124Z,15.00
2017-10-05T07:13:05.367Z,15.30
2017-10-05T07:15:33.256Z,16.10
2017-10-05T07:18:01.120Z,16.50
2017-10-05T07:20:28.913Z,16.30
2017-10-05T07:22:57.549Z,15.30
2017-10-05T07:25:25.524Z,15.20
2017-10-05T07:27:53.273Z,14.70
2017-10-05T07:30:21.151Z,15.20
2017-10-05T07:32:49.033Z,16.40
2017-10-05T07:35:16.908Z,17.00
2017-10-05T07:37:44.854Z,17.60
2017-10-05T07:40:12.749Z,17.70
2017-10-05T07:42:41.987Z,17.00
2017-10-05T07:45:10.099Z,17.00
2017-10-05T07:47:37.871Z,16.10
2017-10-05T07:50:05.871Z,15.90
2017-10-05T07:52:34.972Z,15.20
2017-10-05T07:55:03.736Z,16.20
2017-10-05T07:57:31.676Z,16.20
2017-10-05T07:59:59.463Z,17.40
2017-10-05T08:02:27.835Z,17.10
2017-10-05T08:04:55.593Z,17.50
2017-10-05T08:07:23.553Z,16.10
2017-10-05T08:09:51.448Z,15.60
2017-10-05T08:12:19.384Z,15.20
2017-10-05T08:14:47.360Z,14.70
2017-10-05T08:17:15.341Z,14.30
2017-10-05T08:19:43.109Z,14.30
2017-10-05T08:22:10.858Z,14.30
2017-10-05T08:24:38.658Z,14.90
2017-10-05T08:27:07.320Z,16.50
2017-10-05T08:29:35.281Z,16.50
2017-10-05T08:32:03.453Z,17.20
2017-10-05T08:34:31.416Z,17.50
2017-10-05T08:36:59.299Z,17.10
2017-10-05T08:39:27.248Z,17.20
2017-10-05T08:41:55.470Z,16.50
2017-10-05T08:44:24.211Z,16.20
2017-10-05T08:46:52.286Z,16.20
2017-10-05T08:49:20.269Z,16.50
2017-10-05T08:51:48.265Z,16.90
2017-10-05T08:54:17.149Z,17.00
2017-10-05T08:56:46.002Z,17.50
2017-10-05T08:59:14.585Z,17.50
2017-10-05T09:01:43.474Z,18.00
2017-10-05T09:04:11.445Z,17.50
2017-10-05T09:06:39.474Z,18.10
2017-10-05T09:09:08.255Z,18.20
2017-10-05T09:11:36.893Z,17.60
2017-10-05T09:14:04.858Z,17.60
2017-10-05T09:16:32.821Z,17.90
2017-10-05T09:19:00.799Z,17.70
2017-10-05T09:21:28.763Z,17.50
2017-10-05T09:23:56.731Z,17.60
2017-10-05T09:26:24.702Z,17.80
2017-10-05T09:28:52.880Z,17.40
2017-10-05T09:31:20.843Z,17.40
2017-10-05T09:33:48.813Z,17.20
2017-10-05T09:36:16.781Z,16.80
2017-10-05T09:38:45.507Z,17.10
2017-10-05T09:41:14.254Z,16.70
2017-10-05T09:43:42.305Z,16.60
2017-10-05T09:46:10.502Z,16.90
2017-10-05T09:48:38.470Z,16.90
2017-10-05T09:51:06.570Z,16.90
2017-10-05T09:53:34.509Z,17.10
2017-10-05T09:56:02.582Z,17.30
2017-10-05T09:58:30.652Z,17.50
2017-10-05T10:00:58.725Z,17.20
2017-10-05T10:03:26.694Z,17.40
2017-10-05T10:05:55.406Z,17.70
2017-10-05T10:08:23.343Z,17.70
2017-10-05T10:10:51.316Z,17.70
2017-10-05T10:13:19.285Z,17.60
2017-10-05T10:15:47.357Z,17.30
2017-10-05T10:18:15.265Z,17.30
2017-10-05T10:20:44.218Z,17.40
2017-10-05T10:23:12.123Z,17.40
2017-10-05T10:25:40.872Z,17.60
2017-10-05T10:28:08.845Z,17.50
2017-10-05T10:30:37.419Z,17.70
2017-10-05T10:33:05.595Z,17.90
2017-10-05T10:35:33.567Z,17.80
2017-10-05T10:38:01.538Z,17.50
2017-10-05T10:40:29.995Z,17.70
2017-10-05T10:42:57.993Z,17.80
2017-10-05T10:45:25.956Z,18.00
2017-10-05T10:47:54.026Z,18.30
2017-10-05T10:50:22.951Z,18.30
2017-10-05T10:52:51.811Z,18.30
2017-10-05T10:55:19.782Z,18.20
2017-10-05T10:57:47.848Z,18.30
2017-10-05T11:00:16.022Z,18.30
2017-10-05T11:02:44.195Z,18.30
2017-10-05T11:05:12.368Z,18.60
2017-10-05T11:07:40.236Z,18.70
2017-10-05T11:10:08.057Z,18.80
2017-10-05T11:12:36.615Z,18.90
2017-10-05T11:15:04.567Z,18.80
2017-10-05T11:17:32.935Z,18.90
2017-10-05T11:20:01.017Z,19.10
2017-10-05T11:22:29.079Z,18.90
2017-10-05T11:24:57.145Z,18.80
2017-10-05T11:27:25.218Z,18.80
2017-10-05T11:29:53.187Z,18.90
2017-10-05T11:32:21.254Z,19.10
2017-10-05T11:34:49.225Z,19.30
2017-10-05T11:37:17.193Z,19.20
2017-10-05T11:39:45.164Z,19.40
2017-10-05T11:42:13.146Z,19.50
2017-10-05T11:44:41.106Z,19.40
2017-10-05T11:47:09.074Z,19.20
2017-10-05T11:49:37.348Z,19.00
2017-10-05T11:52:05.422Z,18.80
2017-10-05T11:54:33.386Z,18.90
2017-10-05T11:57:01.356Z,19.00
2017-10-05T11:59:29.323Z,19.40
2017-10-05T12:01:57.299Z,20.20
2017-10-05T12:04:26.008Z,20.20
2017-10-05T12:06:53.948Z,20.40
2017-10-05T12:09:22.018Z,20.40
2017-10-05T12:11:50.140Z,20.20
2017-10-05T12:14:18.878Z,20.60
2017-10-05T12:16:47.056Z,20.60
2017-10-05T12:19:15.158Z,21.30
2017-10-05T12:21:43.797Z,21.40
2017-10-05T12:24:11.984Z,21.40
2017-10-05T12:26:40.158Z,21.50
2017-10-05T12:29:08.228Z,21.60
2017-10-05T12:31:36.257Z,21.40
2017-10-05T12:34:04.266Z,21.40
2017-10-05T12:36:32.246Z,21.50
2017-10-05T12:39:00.198Z,21.30
2017-10-05T12:41:29.199Z,21.00
2017-10-05T12:43:57.104Z,21.00
2017-10-05T12:46:25.782Z,21.40
2017-10-05T12:48:53.822Z,21.40
2017-10-05T12:51:22.715Z,21.40
2017-10-05T12:53:50.928Z,21.40
2017-10-05T12:56:19.620Z,21.50
2017-10-05T12:58:48.312Z,21.40
2017-10-05T13:01:17.047Z,21.20
2017-10-05T13:03:45.121Z,21.10
2017-10-05T13:06:13.087Z,21.10
2017-10-05T13:08:41.055Z,21.30
2017-10-05T13:11:09.031Z,21.10
2017-10-05T13:13:37.096Z,21.10
2017-10-05T13:16:05.011Z,21.30
2017-10-05T13:18:33.751Z,21.40
2017-10-05T13:21:01.721Z,21.40
2017-10-05T13:23:29.661Z,21.60
2017-10-05T13:25:57.680Z,22.20
2017-10-05T13:28:25.731Z,23.00
2017-10-05T13:30:53.556Z,23.00
2017-10-05T13:33:21.713Z,22.70
2017-10-05T13:35:50.589Z,22.50
2017-10-05T13:38:18.533Z,22.50
2017-10-05T13:40:46.598Z,22.40
2017-10-05T13:43:14.875Z,21.90
2017-10-05T13:45:42.843Z,21.70
2017-10-05T13:48:10.914Z,21.40
2017-10-05T13:50:38.882Z,21.60
2017-10-05T13:53:07.812Z,22.60
2017-10-05T13:55:36.577Z,22.90
2017-10-05T13:58:04.539Z,22.90
2017-10-05T14:00:32.538Z,23.10
2017-10-05T14:03:01.290Z,23.90
2017-10-05T14:05:29.396Z,23.90
2017-10-05T14:07:58.251Z,24.50
2017-10-05T14:10:26.219Z,24.50
2017-10-05T14:12:54.406Z,25.10
2017-10-05T14:15:22.383Z,25.30
2017-10-05T14:17:51.993Z,25.80
2017-10-05T14:20:21.616Z,25.20
2017-10-05T14:22:50.322Z,25.40
2017-10-05T14:25:18.231Z,25.40
2017-10-05T14:27:46.309Z,25.20
2017-10-05T14:30:14.477Z,25.40
2017-10-05T14:32:42.546Z,25.50
2017-10-05T14:35:10.528Z,25.60
2017-10-05T14:37:38.411Z,25.40
2017-10-05T14:40:07.275Z,25.40
2017-10-05T14:42:35.258Z,25.40
2017-10-05T14:45:03.137Z,25.80
2017-10-05T14:47:32.717Z,26.50
2017-10-05T14:50:00.815Z,26.60
2017-10-05T14:52:29.564Z,25.80
2017-10-05T14:54:57.647Z,25.80
2017-10-05T14:57:25.532Z,26.20
2017-10-05T14:59:53.493Z,26.40
2017-10-05T15:02:21.368Z,26.30
2017-10-05T15:04:49.330Z,26.20
2017-10-05T15:07:17.598Z,26.40
2017-10-05T15:09:46.486Z,26.00
2017-10-05T15:12:14.364Z,25.70
2017-10-05T15:14:42.234Z,24.90
2017-10-05T15:17:10.127Z,24.00
2017-10-05T15:19:38.221Z,23.90
2017-10-05T15:22:06.041Z,24.20
2017-10-05T15:24:33.975Z,24.60
2017-10-05T15:27:01.858Z,24.80
2017-10-05T15:29:29.742Z,25.00
2017-10-05T15:31:57.709Z,25.20
2017-10-05T15:34:25.557Z,25.00
2017-10-05T15:36:53.335Z,24.80
2017-10-05T15:39:21.310Z,25.00
2017-10-05T15:41:49.224Z,25.00
2017-10-05T15:44:17.020Z,24.80
2017-10-05T15:46:44.901Z,24.60
2017-10-05T15:49:12.691Z,23.80
2017-10-05T15:51:42.389Z,22.80
2017-10-05T15:54:10.950Z,22.70
2017-10-05T15:56:38.954Z,22.40
2017-10-05T15:59:07.608Z,21.90
2017-10-05T16:01:35.379Z,21.80
2017-10-05T16:04:03.449Z,21.60
2017-10-05T16:06:31.222Z,21.40
2017-10-05T16:09:01.043Z,21.10
2017-10-05T16:11:28.897Z,21.00
2017-10-05T16:13:56.891Z,20.90
2017-10-05T16:16:25.133Z,20.80
2017-10-05T16:18:53.041Z,20.70
2017-10-05T16:21:21.678Z,20.50
2017-10-05T16:23:49.651Z,20.40
2017-10-05T16:26:17.520Z,20.30
2017-10-05T16:28:45.407Z,20.30
2017-10-05T16:31:13.567Z,20.10
2017-10-05T16:33:41.468Z,20.00
2017-10-05T16:36:10.141Z,19.70
2017-10-05T16:38:38.999Z,19.50
2017-10-05T16:41:06.877Z,19.50
2017-10-05T16:43:34.645Z,19.40
2017-10-05T16:46:02.701Z,19.10
2017-10-05T16:48:30.569Z,18.90
2017-10-05T16:50:58.917Z,18.70
2017-10-05T16:53:26.810Z,18.60
2017-10-05T16:55:54.907Z,18.50
2017-10-05T16:58:23.066Z,18.50
2017-10-05T17:00:51.027Z,18.50
2017-10-05T17:03:19.738Z,18.50
2017-10-05T17:05:47.500Z,18.40
2017-10-05T17:08:15.444Z,18.20
2017-10-05T17:10:43.439Z,18.10
2017-10-05T17:13:11.524Z,18.00
2017-10-05T17:15:40.276Z,17.60
2017-10-05T17:18:08.062Z,17.60
2017-10-05T17:20:36.109Z,17.50
2017-10-05T17:23:04.626Z,17.30
2017-10-05T17:25:33.277Z,17.10
2017-10-05T17:28:01.860Z,17.10
2017-10-05T17:30:30.118Z,17.00
2017-10-05T17:32:58.414Z,16.90
2017-10-05T17:35:26.410Z,16.80
2017-10-05T17:37:54.363Z,16.80
2017-10-05T17:40:22.351Z,16.80
2017-10-05T17:42:50.287Z,17.00
2017-10-05T17:45:18.720Z,17.00
2017-10-05T17:47:47.455Z,17.00
2017-10-05T17:50:15.337Z,17.00
2017-10-05T17:52:43.289Z,17.00
2017-10-05T17:55:11.360Z,17.00
2017-10-05T17:57:39.161Z,16.90
2017-10-05T18:00:08.017Z,17.10
2017-10-05T18:02:35.967Z,17.10
2017-10-05T18:05:04.078Z,17.20
2017-10-05T18:07:32.024Z,17.20
2017-10-05T18:09:59.993Z,17.20
2017-10-05T18:12:28.201Z,17.30
2017-10-05T18:14:56.955Z,17.40
2017-10-05T18:17:24.903Z,17.40
2017-10-05T18:19:52.799Z,17.30
2017-10-05T18:22:20.916Z,17.20
2017-10-05T18:24:49.851Z,17.40
2017-10-05T18:27:17.989Z,17.40
2017-10-05T18:29:46.127Z,17.40
2017-10-05T18:32:13.983Z,17.30
2017-10-05T18:34:41.854Z,17.20
2017-10-05T18:37:09.811Z,17.10
2017-10-05T18:39:37.780Z,16.80
2017-10-05T18:42:05.862Z,16.60
2017-10-05T18:44:33.719Z,16.30
2017-10-05T18:47:01.675Z,15.60
2017-10-05T18:49:29.559Z,15.00
2017-10-05T18:51:57.537Z,14.50
2017-10-05T18:54:25.524Z,14.40
2017-10-05T18:56:54.268Z,14.30
2017-10-05T18:59:22.010Z,14.20
2017-10-05T19:01:50.023Z,14.30
2017-10-05T19:04:17.794Z,14.30
2017-10-05T19:06:45.588Z,14.40
2017-10-05T19:09:14.433Z,14.70
2017-10-05T19:11:42.608Z,14.60
2017-10-05T19:14:10.619Z,14.60
2017-10-05T19:16:38.677Z,14.40
2017-10-05T19:19:07.752Z,14.20
2017-10-05T19:21:35.830Z,14.10
2017-10-05T19:24:03.818Z,14.00
2017-10-05T19:26:31.841Z,14.00
2017-10-05T19:28:59.941Z,13.90
2017-10-05T19:31:27.905Z,13.80
2017-10-05T19:33:55.854Z,13.60
2017-10-05T19:36:23.844Z,13.40
2017-10-05T19:38:51.900Z,13.30
2017-10-05T19:41:20.193Z,13.40
2017-10-05T19:43:48.239Z,13.20
2017-10-05T19:46:16.464Z,13.20
2017-10-05T19:51:38.369Z,13.10
2017-10-05T19:54:07.384Z,12.90
2017-10-05T19:56:35.249Z,12.90
2017-10-05T19:59:03.213Z,12.80
2017-10-05T20:01:31.079Z,12.70
2017-10-05T20:04:00.397Z,12.70
2017-10-05T20:06:29.164Z,12.70
2017-10-05T20:08:57.018Z,12.70
2017-10-05T20:11:25.103Z,12.70
2017-10-05T20:13:53.804Z,12.70
2017-10-05T20:16:22.665Z,12.70
2017-10-05T20:19:02.015Z,12.80
2017-10-05T20:21:47.611Z,12.80
2017-10-05T20:24:21.642Z,12.70
2017-10-05T20:27:07.988Z,12.70
2017-10-05T20:29:42.062Z,12.80
2017-10-05T20:32:11.609Z,12.70
2017-10-05T20:34:39.497Z,12.70
2017-10-05T20:37:07.590Z,12.80
2017-10-05T20:39:36.244Z,12.70
2017-10-05T20:42:04.098Z,12.70
2017-10-05T20:44:32.173Z,12.70
2017-10-05T20:47:00.160Z,12.70
2017-10-05T20:49:27.951Z,12.70
2017-10-05T20:51:56.510Z,12.70
2017-10-05T20:54:24.472Z,12.70
2017-10-05T20:56:55.214Z,12.60
2017-10-05T20:59:22.961Z,12.60
2017-10-05T21:01:50.840Z,12.50
2017-10-05T21:04:19.608Z,12.40
2017-10-05T21:06:48.997Z,12.40
2017-10-05T21:09:16.978Z,12.40
2017-10-05T21:11:44.760Z,12.40
2017-10-05T21:14:12.624Z,12.40
2017-10-05T21:16:40.407Z,12.40
2017-10-05T21:19:08.268Z,12.40
2017-10-05T21:21:42.216Z,12.30
2017-10-05T21:24:10.348Z,12.30
2017-10-05T21:26:38.109Z,12.30
2017-10-05T21:29:05.980Z,12.20
2017-10-05T21:31:33.921Z,12.20
2017-10-05T21:34:01.710Z,12.20
2017-10-05T21:36:29.577Z,12.10
2017-10-05T21:38:57.335Z,12.20
2017-10-05T21:41:26.105Z,12.10
2017-10-05T21:43:53.908Z,12.10
2017-10-05T21:46:21.650Z,12.10
2017-10-05T21:48:49.470Z,12.10
2017-10-05T21:51:17.331Z,12.00
2017-10-05T21:53:45.090Z,12.10
2017-10-05T21:56:12.923Z,12.00
2017-10-05T21:58:40.786Z,12.00
2017-10-05T22:01:08.646Z,12.00
2017-10-05T22:03:37.327Z,12.00
2017-10-05T22:06:05.295Z,12.00
2017-10-05T22:08:33.164Z,11.70
2017-10-05T22:11:00.892Z,10.90
2017-10-05T22:13:28.779Z,10.50
2017-10-05T22:15:56.641Z,10.30
2017-10-05T22:18:24.426Z,10.20
2017-10-05T22:20:52.282Z,10.10
2017-10-05T22:23:20.867Z,10.00
2017-10-05T22:25:48.618Z,10.10
2017-10-05T22:28:16.411Z,10.10
2017-10-05T22:30:44.352Z,10.10
2017-10-05T22:33:12.165Z,10.10
2017-10-05T22:35:40.739Z,10.10
2017-10-05T22:38:08.496Z,10.10
2017-10-05T22:40:36.360Z,10.10
2017-10-05T22:43:04.263Z,10.10
2017-10-05T22:45:32.062Z,10.00
2017-10-05T22:48:00.131Z,10.00
2017-10-05T22:50:28.646Z,10.00
2017-10-05T22:52:56.580Z,9.90
2017-10-05T22:55:24.368Z,9.90
2017-10-05T22:57:52.229Z,9.90
2017-10-05T23:00:20.057Z,9.90
2017-10-05T23:02:47.860Z,9.80
2017-10-05T23:05:15.652Z,9.80
2017-10-05T23:07:44.207Z,9.70
2017-10-05T23:10:12.177Z,9.70
2017-10-05T23:12:40.054Z,9.80
2017-10-05T23:15:08.020Z,9.80
2017-10-05T23:17:35.781Z,9.80
2017-10-05T23:20:03.803Z,9.80
2017-10-05T23:22:31.697Z,9.70
2017-10-05T23:24:59.584Z,9.70
2017-10-05T23:27:27.346Z,9.60
2017-10-05T23:29:55.081Z,9.60
2017-10-05T23:32:22.872Z,9.60
2017-10-05T23:34:50.628Z,9.60
2017-10-05T23:37:18.420Z,9.60
2017-10-05T23:39:46.264Z,9.60
2017-10-05T23:42:14.134Z,9.50
2017-10-05T23:44:42.392Z,9.50
2017-10-05T23:47:10.274Z,9.40
2017-10-05T23:49:38.034Z,9.40
2017-10-05T23:52:06.570Z,9.40
2017-10-05T23:54:34.380Z,9.30
2017-10-05T23:57:02.344Z,9.40
2017-10-05T23:59:30.324Z,9.30
